createdAt,value
2018-01-08T00:00:04.029Z,0.1
2018-01-08T00:05:02.404Z,0.1
2018-01-08T00:10:03.278Z,0.3
2018-01-08T00:15:02.960Z,0.1
2018-01-08T00:20:02.458Z,0.3
2018-01-08T00:35:03.043Z,0.1
2018-01-08T00:40:02.514Z,0.1
2018-01-08T00:45:03.126Z,0.1
2018-01-08T00:50:02.641Z,0.3
2018-01-08T00:55:03.206Z,0.3
2018-01-08T01:00:02.699Z,0.3
2018-01-08T01:05:03.060Z,0.3
2018-01-08T01:10:02.604Z,0.1
2018-01-08T01:15:03.284Z,0.3
2018-01-08T01:20:02.892Z,0.1
2018-01-08T01:25:02.651Z,0.3
2018-01-08T01:30:03.337Z,0.3
2018-01-08T01:35:02.866Z,0.3
2018-01-08T01:40:03.348Z,0.3
2018-01-08T01:45:02.798Z,0.3
2018-01-08T01:50:02.474Z,0.4
2018-01-08T01:55:03.028Z,0.4
2018-01-08T02:00:02.759Z,0.4
2018-01-08T02:05:03.372Z,0.4
2018-01-08T02:10:02.927Z,0.4
2018-01-08T02:15:02.378Z,0.4
2018-01-08T02:20:03.341Z,0.4
2018-01-08T02:25:02.999Z,0.4
2018-01-08T02:30:02.695Z,0.6
2018-01-08T02:35:03.173Z,0.6
2018-01-08T02:40:02.785Z,0.6
2018-01-08T02:45:03.398Z,0.4
2018-01-08T02:50:03.108Z,0.6
2018-01-08T02:55:02.552Z,0.6
2018-01-08T03:00:03.202Z,0.6
2018-01-08T03:05:02.879Z,0.6
2018-01-08T03:10:02.537Z,0.6
2018-01-08T03:15:02.971Z,0.6
2018-01-08T03:20:02.387Z,0.6
2018-01-08T03:25:02.996Z,0.6
2018-01-08T03:30:02.493Z,0.6
2018-01-08T03:35:03.010Z,0.6
2018-01-08T03:40:02.684Z,0.7
2018-01-08T03:45:03.313Z,0.7
2018-01-08T03:50:02.934Z,0.7
2018-01-08T03:55:02.511Z,0.7
2018-01-08T04:00:03.404Z,0.7
2018-01-08T04:05:02.964Z,0.7
2018-01-08T04:10:02.656Z,0.7
2018-01-08T04:15:03.169Z,0.7
2018-01-08T04:20:02.665Z,0.7
2018-01-08T04:25:03.177Z,0.7
2018-01-08T04:30:02.591Z,0.8
2018-01-08T04:35:03.253Z,0.7
2018-01-08T04:40:02.922Z,0.7
2018-01-08T04:45:02.414Z,0.7
2018-01-08T04:50:03.099Z,0.7
2018-01-08T04:55:02.533Z,0.8
2018-01-08T05:00:02.970Z,0.8
2018-01-08T05:05:02.552Z,0.7
2018-01-08T05:10:03.006Z,0.8
2018-01-08T05:15:02.479Z,0.8
2018-01-08T05:25:02.967Z,0.8
2018-01-08T05:30:03.384Z,0.8
2018-01-08T05:35:02.999Z,0.8
2018-01-08T05:40:02.677Z,0.8
2018-01-08T05:45:03.152Z,0.8
2018-01-08T05:50:02.585Z,0.8
2018-01-08T05:55:03.013Z,0.8
2018-01-08T06:00:02.610Z,0.8
2018-01-08T06:05:03.005Z,0.8
2018-01-08T06:10:02.490Z,0.7
2018-01-08T06:15:03.018Z,0.7
2018-01-08T06:20:02.464Z,0.6
2018-01-08T06:25:03.093Z,0.6
2018-01-08T06:30:02.832Z,0.7
2018-01-08T06:35:03.276Z,0.6
2018-01-08T06:40:02.929Z,0.6
2018-01-08T06:45:02.509Z,0.6
2018-01-08T06:50:03.018Z,0.6
2018-01-08T06:55:02.460Z,0.6
2018-01-08T07:00:02.949Z,0.6
2018-01-08T07:10:03.147Z,0.3
2018-01-08T07:15:02.676Z,0.3
2018-01-08T07:20:03.157Z,0.3
2018-01-08T07:25:02.631Z,0.1
2018-01-08T07:30:03.179Z,0.1
2018-01-08T07:35:02.609Z,0.1
2018-01-08T07:40:03.303Z,0.1
2018-01-08T07:45:02.745Z,0.1
2018-01-08T07:50:03.259Z,0.1
2018-01-08T07:55:02.873Z,0.1
2018-01-08T08:00:02.501Z,0.1
2018-01-08T08:05:03.173Z,0.3
2018-01-08T08:10:02.826Z,0.3
2018-01-08T08:15:02.400Z,0.3
2018-01-08T08:20:02.983Z,0.4
2018-01-08T08:25:02.618Z,0.4
2018-01-08T08:30:03.112Z,0.4
2018-01-08T08:35:02.795Z,0.4
2018-01-08T08:40:02.400Z,0.6
2018-01-08T08:45:02.832Z,0.6
2018-01-08T08:50:03.374Z,0.7
2018-01-08T08:55:02.785Z,0.7
2018-01-08T09:00:03.309Z,0.7
2018-01-08T09:05:02.966Z,1.1
2018-01-08T09:10:02.616Z,1.6
2018-01-08T09:15:03.178Z,1.6
2018-01-08T09:20:02.802Z,2.0
2018-01-08T09:25:03.270Z,2.0
2018-01-08T09:30:02.876Z,2.0
2018-01-08T09:35:02.399Z,2.2
2018-01-08T09:40:02.914Z,2.4
2018-01-08T09:45:03.283Z,2.0
2018-01-08T09:50:02.761Z,1.8
2018-01-08T09:55:03.242Z,1.8
2018-01-08T10:00:02.699Z,1.7
2018-01-08T10:05:03.398Z,1.8
2018-01-08T10:10:03.074Z,2.0
2018-01-08T10:15:02.443Z,2.4
2018-01-08T10:20:02.956Z,2.7
2018-01-08T10:25:02.594Z,2.7
2018-01-08T10:30:03.254Z,3.0
2018-01-08T10:35:02.830Z,2.9
2018-01-08T10:40:03.286Z,3.2
2018-01-08T10:45:02.748Z,3.2
2018-01-08T10:50:02.433Z,3.0
2018-01-08T10:55:02.841Z,2.9
2018-01-08T11:00:03.299Z,3.0
2018-01-08T11:05:02.772Z,3.0
2018-01-08T11:10:02.440Z,3.0
2018-01-08T11:15:02.996Z,3.0
2018-01-08T11:20:02.596Z,3.2
2018-01-08T11:25:03.050Z,4.0
2018-01-08T11:30:02.629Z,3.7
2018-01-08T11:35:03.099Z,4.0
2018-01-08T11:40:02.593Z,4.0
2018-01-08T11:45:03.235Z,4.5
2018-01-08T11:50:03.012Z,4.0
2018-01-08T11:55:02.473Z,3.7
2018-01-08T12:00:02.911Z,4.0
2018-01-08T12:05:02.501Z,3.7
2018-01-08T12:10:03.204Z,4.0
2018-01-08T12:15:02.734Z,4.0
2018-01-08T12:20:03.187Z,3.7
2018-01-08T12:25:02.775Z,3.7
2018-01-08T12:30:03.364Z,4.0
2018-01-08T12:35:02.853Z,3.7
2018-01-08T12:40:03.367Z,4.0
2018-01-08T12:45:02.926Z,4.0
2018-01-08T12:50:02.440Z,4.0
2018-01-08T12:55:03.076Z,4.0
2018-01-08T13:00:02.701Z,4.0
2018-01-08T13:05:03.374Z,4.0
2018-01-08T13:10:02.919Z,4.0
2018-01-08T13:15:03.389Z,4.0
2018-01-08T13:20:03.099Z,4.0
2018-01-08T13:25:02.522Z,4.0
2018-01-08T13:30:02.978Z,4.0
2018-01-08T13:35:02.619Z,4.0
2018-01-08T13:40:03.128Z,4.0
2018-01-08T13:45:02.563Z,4.0
2018-01-08T13:50:03.221Z,4.0
2018-01-08T13:55:02.679Z,3.7
2018-01-08T14:00:03.361Z,3.7
2018-01-08T14:05:02.829Z,3.7
2018-01-08T14:10:02.550Z,3.7
2018-01-08T14:15:03.162Z,3.7
2018-01-08T14:20:02.715Z,3.7
2018-01-08T14:25:03.291Z,3.7
2018-01-08T14:30:02.821Z,4.0
2018-01-08T14:35:02.431Z,4.0
2018-01-08T14:40:02.964Z,3.7
2018-01-08T14:45:02.634Z,3.7
2018-01-08T14:50:03.325Z,3.7
2018-01-08T14:55:02.753Z,3.7
2018-01-08T15:00:02.383Z,4.0
2018-01-08T15:05:02.984Z,4.0
2018-01-08T15:10:02.659Z,4.0
2018-01-08T15:15:03.176Z,3.7
2018-01-08T15:20:02.950Z,3.7
2018-01-08T15:25:02.600Z,3.5
2018-01-08T15:30:03.108Z,3.5
2018-01-08T15:35:02.535Z,3.7
2018-01-08T15:40:03.124Z,3.2
2018-01-08T15:45:02.707Z,3.2
2018-01-08T15:50:03.301Z,3.2
2018-01-08T15:55:02.893Z,3.2
2018-01-08T16:00:02.411Z,3.2
2018-01-08T16:05:03.028Z,3.2
2018-01-08T16:10:02.550Z,3.0
2018-01-08T16:15:03.136Z,3.0
2018-01-08T16:20:02.792Z,2.9
2018-01-08T16:25:03.301Z,2.9
2018-01-08T16:30:02.761Z,2.9
2018-01-08T16:35:03.178Z,2.9
2018-01-08T16:40:02.652Z,2.9
2018-01-08T16:45:03.124Z,2.7
2018-01-08T16:50:02.574Z,2.4
2018-01-08T16:55:03.154Z,2.4
2018-01-08T17:00:02.712Z,2.2
2018-01-08T17:05:02.420Z,2.2
2018-01-08T17:10:03.045Z,2.2
2018-01-08T17:15:02.697Z,2.2
2018-01-08T17:20:03.155Z,2.2
2018-01-08T17:25:02.730Z,2.2
2018-01-08T17:30:03.242Z,2.2
2018-01-08T17:35:02.778Z,2.2
2018-01-08T17:40:03.294Z,2.2
2018-01-08T17:45:02.785Z,2.2
2018-01-08T17:50:03.294Z,2.2
2018-01-08T17:55:02.742Z,2.2
2018-01-08T18:00:02.371Z,2.0
2018-01-08T18:05:02.839Z,2.0
2018-01-08T18:10:02.553Z,2.2
2018-01-08T18:15:03.051Z,2.0
2018-01-08T18:20:02.711Z,2.0
2018-01-08T18:25:03.325Z,2.0
2018-01-08T18:30:02.971Z,1.8
2018-01-08T18:35:02.416Z,1.8
2018-01-08T18:40:03.081Z,1.8
2018-01-08T18:45:02.718Z,1.8
2018-01-08T18:50:03.223Z,1.7
2018-01-08T18:55:02.896Z,1.8
2018-01-08T19:00:02.589Z,1.7
2018-01-08T19:05:02.994Z,1.7
2018-01-08T19:15:03.281Z,1.7
2018-01-08T19:20:02.707Z,1.6
2018-01-08T19:25:03.165Z,1.6
2018-01-08T19:30:02.848Z,1.6
2018-01-08T19:35:02.529Z,1.3
2018-01-08T19:40:03.233Z,1.3
2018-01-08T19:45:02.675Z,1.3
2018-01-08T19:50:03.206Z,1.3
2018-01-08T19:55:02.933Z,1.3
2018-01-08T20:00:02.544Z,1.2
2018-01-08T20:05:03.053Z,1.2
2018-01-08T20:10:02.560Z,1.2
2018-01-08T20:15:03.184Z,1.2
2018-01-08T20:20:02.695Z,1.2
2018-01-08T20:25:03.121Z,1.2
2018-01-08T20:30:02.982Z,1.2
2018-01-08T20:35:02.505Z,1.2
2018-01-08T20:40:03.145Z,1.1
2018-01-08T20:45:02.823Z,1.1
2018-01-08T20:50:03.294Z,1.1
2018-01-08T20:55:02.770Z,1.1
2018-01-08T21:00:02.752Z,1.1
2018-01-08T21:05:03.252Z,0.8
2018-01-08T21:10:02.879Z,1.1
2018-01-08T21:15:03.312Z,1.2
2018-01-08T21:20:02.934Z,1.2
2018-01-08T21:25:02.431Z,1.2
2018-01-08T21:30:02.865Z,1.3
2018-01-08T21:35:02.541Z,1.2
2018-01-08T21:40:03.199Z,1.3
2018-01-08T21:45:02.584Z,1.6
2018-01-08T21:50:03.201Z,1.3
2018-01-08T21:55:02.622Z,1.6
2018-01-08T22:00:03.565Z,1.6
2018-01-08T22:05:03.210Z,1.6
2018-01-08T22:10:02.728Z,1.7
2018-01-08T22:15:03.146Z,1.6
2018-01-08T22:20:02.785Z,1.7
2018-01-08T22:25:03.292Z,1.7
2018-01-08T22:30:02.718Z,1.6
2018-01-08T22:35:03.189Z,1.6
2018-01-08T22:40:02.792Z,1.6
2018-01-08T22:45:03.312Z,1.6
2018-01-08T22:50:02.992Z,1.6
2018-01-08T22:55:02.723Z,1.6
2018-01-08T23:00:03.240Z,1.7
2018-01-08T23:05:02.724Z,1.7
2018-01-08T23:10:02.379Z,1.7
2018-01-08T23:15:02.984Z,1.8
2018-01-08T23:20:02.634Z,1.6
2018-01-08T23:25:03.288Z,1.6
2018-01-08T23:30:02.779Z,1.6
2018-01-08T23:35:03.248Z,1.7
2018-01-08T23:40:02.937Z,1.7
2018-01-08T23:45:02.640Z,1.6
2018-01-08T23:50:03.120Z,1.6
2018-01-08T23:55:02.620Z,1.6
